Time;durP1;ratioP1;P1;durP2;ratioP2;P2;SDS_P1;SDS_P2;PMS_P1;PMS_P2;Temp;Humidity;BMP_temperature;BMP_pressure;BME280_temperature;BME280_humidity;BME280_pressure;Samples;Min_cycle;Max_cycle;Signal;HPM_P1;HPM_P2
2021/06/13 00:00:18;;;;;;;;;7.25;6.75;;;;;22.02;44.68;102024.56;5100534;27;45598;-58
2021/06/13 00:02:44;;;;;;;;;5.25;5.25;;;;;21.99;44.72;102023.84;5099449;27;45314;-57
2021/06/13 00:05:12;;;;;;;;;6.75;5.00;;;;;21.96;45.05;102027.53;5100197;27;45501;-57
2021/06/13 00:07:38;;;;;;;;;6.00;6.00;;;;;21.92;45.23;102031.25;5109266;27;45335;-57
2021/06/13 00:10:06;;;;;;;;;5.25;5.25;;;;;21.88;45.58;102025.16;5101416;27;45402;-57
2021/06/13 00:12:31;;;;;;;;;6.00;6.00;;;;;21.86;45.46;102036.84;5082129;27;45438;-57
2021/06/13 00:14:57;;;;;;;;;5.25;5.25;;;;;21.83;45.60;102035.16;5099926;27;46457;-57
2021/06/13 00:17:22;;;;;;;;;7.50;6.25;;;;;21.81;45.37;102030.81;5100313;27;45280;-57
2021/06/13 00:19:48;;;;;;;;;7.25;6.00;;;;;21.79;45.52;102028.22;5100261;27;45426;-57
2021/06/13 00:22:13;;;;;;;;;6.00;5.00;;;;;21.77;46.07;102032.75;5100383;27;46186;-57
2021/06/13 00:24:39;;;;;;;;;5.00;5.00;;;;;21.73;45.98;102028.47;5099999;27;45291;-57
2021/06/13 00:27:04;;;;;;;;;7.75;6.75;;;;;21.70;46.26;102020.56;5105734;27;45375;-57
2021/06/13 00:29:30;;;;;;;;;6.00;6.00;;;;;21.62;45.81;102012.84;5118455;27;45481;-57
2021/06/13 00:31:55;;;;;;;;;8.25;6.50;;;;;21.64;46.10;102019.00;5100343;27;45352;-57
2021/06/13 00:34:23;;;;;;;;;5.00;5.00;;;;;21.63;46.35;102016.41;5099925;27;46201;-57
2021/06/13 00:36:49;;;;;;;;;5.00;5.00;;;;;21.58;46.62;102014.78;5100211;27;45322;-57
2021/06/13 00:39:14;;;;;;;;;7.75;5.00;;;;;21.59;46.25;102016.50;5099926;27;45576;-57
2021/06/13 00:41:39;;;;;;;;;6.25;5.75;;;;;21.52;46.61;102012.34;5113737;27;45458;-57
2021/06/13 00:44:05;;;;;;;;;6.00;5.50;;;;;21.54;46.52;102014.94;5099937;27;45386;-57
2021/06/13 00:46:30;;;;;;;;;5.00;5.00;;;;;21.54;46.88;102020.28;5100065;27;45359;-57
2021/06/13 00:48:56;;;;;;;;;7.00;7.00;;;;;21.52;47.11;102014.13;5127260;27;45262;-57
2021/06/13 00:51:21;;;;;;;;;7.00;6.50;;;;;21.52;46.94;102016.78;5120555;27;45482;-57
2021/06/13 00:53:48;;;;;;;;;6.50;6.00;;;;;21.50;46.58;102021.34;5107070;27;46005;-57
2021/06/13 00:56:14;;;;;;;;;7.25;6.50;;;;;21.47;47.09;102025.03;5099757;27;45427;-57
2021/06/13 00:58:40;;;;;;;;;6.75;6.75;;;;;21.46;47.00;102014.34;5108914;27;45498;-57
2021/06/13 01:01:05;;;;;;;;;7.00;6.00;;;;;21.45;47.31;102010.84;5113621;27;45362;-57
2021/06/13 01:03:31;;;;;;;;;5.50;5.50;;;;;21.45;46.82;102018.84;5099575;27;46321;-57
2021/06/13 01:05:56;;;;;;;;;6.50;6.50;;;;;21.40;46.86;102018.16;5081353;27;45331;-57
2021/06/13 01:08:32;;;;;;;;;9.00;8.00;;;;;21.42;46.97;102016.28;5114908;27;45334;-57
2021/06/13 01:11:00;;;;;;;;;6.00;5.50;;;;;21.40;47.01;102019.03;5107961;27;45233;-57
2021/06/13 01:13:32;;;;;;;;;6.75;6.75;;;;;21.36;47.35;102016.56;5104143;27;46244;-57
2021/06/13 01:16:23;;;;;;;;;6.00;6.00;;;;;21.34;47.17;102023.75;5103116;27;45240;-62
2021/06/13 01:18:55;;;;;;;;;7.00;7.00;;;;;21.27;47.23;102012.44;5103048;27;45295;-56
2021/06/13 01:21:31;;;;;;;;;7.00;7.00;;;;;21.28;47.84;102019.50;5084660;27;45217;-57
2021/06/13 01:24:03;;;;;;;;;8.00;8.00;;;;;21.27;47.62;102020.47;5102962;27;45300;-57
2021/06/13 01:26:52;;;;;;;;;7.75;6.75;;;;;21.24;47.38;102018.78;5103169;27;45169;-56
2021/06/13 01:29:28;;;;;;;;;7.00;7.00;;;;;21.20;47.90;102026.97;5123530;27;45407;-55
2021/06/13 01:31:56;;;;;;;;;5.25;4.75;;;;;21.14;47.56;102025.38;5092083;27;45472;-55
2021/06/13 01:34:36;;;;;;;;;6.75;5.25;;;;;21.09;48.12;102025.59;5108237;27;46473;-55
2021/06/13 01:37:06;;;;;;;;;7.00;7.00;;;;;21.03;47.82;102033.84;5103032;27;45398;-55
2021/06/13 01:39:33;;;;;;;;;9.50;8.25;;;;;21.02;47.80;102032.09;5097070;27;45323;-55
2021/06/13 01:42:01;;;;;;;;;9.00;9.00;;;;;20.98;47.86;102033.13;5123298;27;45528;-55
2021/06/13 01:44:27;;;;;;;;;9.50;8.00;;;;;20.95;48.48;102025.22;5106317;27;45290;-55
2021/06/13 01:46:55;;;;;;;;;11.00;7.00;;;;;20.94;48.48;102039.50;5102786;27;45469;-53
2021/06/13 01:49:21;;;;;;;;;5.75;5.00;;;;;20.90;48.57;102025.38;5102918;27;45319;-55
2021/06/13 01:51:48;;;;;;;;;9.50;7.25;;;;;20.88;48.34;102032.59;5123106;27;45532;-55
2021/06/13 01:54:15;;;;;;;;;8.00;7.00;;;;;20.86;48.77;102041.59;5105295;27;46567;-55
2021/06/13 01:56:47;;;;;;;;;9.00;8.00;;;;;20.83;48.77;102041.69;5102414;27;45247;-55
2021/06/13 01:59:16;;;;;;;;;6.75;6.00;;;;;20.81;48.45;102030.22;5102294;27;45329;-55
2021/06/13 02:01:44;;;;;;;;;7.50;7.00;;;;;20.79;48.32;102043.59;5102465;27;45423;-55
2021/06/13 02:04:11;;;;;;;;;8.00;8.00;;;;;20.73;48.52;102042.06;5083783;27;46771;-54
2021/06/13 02:06:42;;;;;;;;;8.00;7.00;;;;;20.70;48.55;102044.78;5102708;27;45437;-54
2021/06/13 02:09:08;;;;;;;;;7.00;6.00;;;;;20.70;48.49;102044.78;5109730;27;45330;-55
2021/06/13 02:11:35;;;;;;;;;9.50;7.25;;;;;20.67;49.42;102044.06;5108477;27;45315;-55
2021/06/13 02:14:03;;;;;;;;;11.00;5.25;;;;;20.66;48.88;102044.97;5116764;27;45366;-54
2021/06/13 02:16:30;;;;;;;;;8.75;8.50;;;;;20.62;49.36;102044.22;5127780;27;45229;-55
2021/06/13 02:18:58;;;;;;;;;7.50;6.00;;;;;20.67;49.23;102052.91;5102215;27;45354;-54
2021/06/13 02:21:25;;;;;;;;;5.75;5.50;;;;;20.64;49.07;102055.72;5083618;27;45733;-54
2021/06/13 02:23:50;;;;;;;;;11.25;7.00;;;;;20.64;49.48;102058.38;5102091;27;45372;-55
2021/06/13 02:26:18;;;;;;;;;6.25;6.25;;;;;20.63;49.58;102064.66;5100887;27;45328;-54
2021/06/13 02:28:50;;;;;;;;;8.00;6.50;;;;;20.62;49.06;102066.44;5121459;27;45290;-53
2021/06/13 02:31:16;;;;;;;;;7.00;7.00;;;;;20.60;49.57;102062.06;5105427;27;45319;-55
2021/06/13 02:33:44;;;;;;;;;6.25;6.25;;;;;20.58;49.53;102064.81;5101908;27;46247;-55
2021/06/13 02:36:11;;;;;;;;;10.25;7.75;;;;;20.49;49.48;102059.81;5101664;27;45276;-55
2021/06/13 02:38:36;;;;;;;;;10.00;8.00;;;;;20.51;49.78;102062.41;5102075;27;45403;-56
2021/06/13 02:41:03;;;;;;;;;9.00;8.00;;;;;20.46;49.42;102065.22;5115489;27;45473;-55
2021/06/13 02:43:29;;;;;;;;;8.75;8.75;;;;;20.39;49.51;102056.56;5101558;27;46113;-56
2021/06/13 02:45:54;;;;;;;;;6.25;6.25;;;;;20.38;50.01;102062.84;5101648;27;45431;-56
2021/06/13 02:48:20;;;;;;;;;6.50;6.00;;;;;20.34;50.23;102062.97;5102115;27;45518;-55
2021/06/13 02:50:47;;;;;;;;;7.75;7.75;;;;;20.27;49.94;102059.66;5104758;27;45901;-55
2021/06/13 02:53:22;;;;;;;;;7.50;7.00;;;;;20.26;50.05;102071.25;5113536;27;47387;-55
2021/06/13 02:55:53;;;;;;;;;6.25;6.00;;;;;20.25;50.05;102066.84;5101531;27;45240;-55
2021/06/13 02:58:30;;;;;;;;;9.25;8.00;;;;;20.22;50.42;102089.16;5101351;27;45423;-55
2021/06/13 03:00:57;;;;;;;;;7.00;7.00;;;;;20.20;50.45;102092.81;5101559;27;45358;-55
2021/06/13 03:03:27;;;;;;;;;7.25;6.00;;;;;20.17;50.10;102087.59;5101293;27;46204;-55
2021/06/13 03:05:53;;;;;;;;;9.00;9.00;;;;;20.16;50.48;102093.84;5101465;27;45352;-55
2021/06/13 03:08:20;;;;;;;;;8.25;6.25;;;;;20.14;50.55;102097.44;5116280;27;45382;-55
2021/06/13 03:10:48;;;;;;;;;5.75;5.75;;;;;20.12;50.56;102098.41;5108342;27;45409;-55
2021/06/13 03:13:16;;;;;;;;;8.00;7.00;;;;;20.09;50.61;102101.19;5108128;27;46408;-55
2021/06/13 03:15:42;;;;;;;;;10.00;9.00;;;;;20.05;50.61;102103.06;5135098;27;45172;-55
2021/06/13 03:18:10;;;;;;;;;13.25;9.25;;;;;20.04;50.40;102108.47;5106803;27;45319;-55
2021/06/13 03:20:37;;;;;;;;;10.25;9.00;;;;;20.03;50.70;102112.91;5101303;27;45398;-55
2021/06/13 03:23:03;;;;;;;;;7.75;7.75;;;;;19.99;50.90;102105.94;5101100;27;45403;-55
2021/06/13 03:25:28;;;;;;;;;9.25;8.00;;;;;19.99;50.50;102119.28;5099878;27;45209;-56
2021/06/13 03:27:54;;;;;;;;;8.00;8.00;;;;;19.94;50.84;102110.56;5116145;27;45476;-56
2021/06/13 03:30:21;;;;;;;;;7.00;7.00;;;;;19.94;50.77;102111.41;5113314;27;45443;-55
2021/06/13 03:32:46;;;;;;;;;9.25;7.75;;;;;19.94;51.02;102114.09;5100880;27;46117;-57
2021/06/13 03:35:13;;;;;;;;;7.25;7.00;;;;;19.94;50.74;102116.75;5118645;27;45227;-56
2021/06/13 03:37:41;;;;;;;;;10.50;8.00;;;;;19.92;50.95;102112.38;5124197;27;45325;-57
2021/06/13 03:40:08;;;;;;;;;18.25;16.00;;;;;19.91;51.13;102113.31;5107959;27;45503;-56
2021/06/13 03:42:34;;;;;;;;;7.50;7.50;;;;;19.87;50.63;102114.34;5106877;27;45293;-56
2021/06/13 03:45:00;;;;;;;;;9.75;7.75;;;;;19.87;51.27;102117.84;5100741;27;45216;-56
2021/06/13 03:47:28;;;;;;;;;9.00;7.75;;;;;19.84;50.90;102115.31;5082459;27;45288;-56
2021/06/13 03:49:55;;;;;;;;;10.25;8.50;;;;;19.78;50.96;102110.97;5105897;27;45323;-56
2021/06/13 03:52:22;;;;;;;;;11.75;9.00;;;;;19.72;51.53;102113.88;5119515;27;46227;-56
2021/06/13 03:54:48;;;;;;;;;8.50;6.75;;;;;19.74;51.85;102119.16;5100690;27;45272;-56
2021/06/13 03:57:14;;;;;;;;;13.00;8.50;;;;;19.74;51.50;102112.00;5100572;27;45200;-57
2021/06/13 03:59:43;;;;;;;;;8.75;8.75;;;;;19.67;51.59;102118.44;5082372;27;46153;-56
2021/06/13 04:02:10;;;;;;;;;9.00;9.00;;;;;19.69;51.48;102115.75;5082087;27;46351;-56
2021/06/13 04:04:41;;;;;;;;;8.25;7.00;;;;;19.65;51.53;102114.97;5100557;27;45360;-56
2021/06/13 04:07:08;;;;;;;;;10.75;7.25;;;;;19.63;51.34;102116.81;5104988;27;45257;-56
2021/06/13 04:09:37;;;;;;;;;11.25;8.25;;;;;19.63;51.60;102123.03;5110494;27;45261;-56
2021/06/13 04:12:05;;;;;;;;;10.00;9.00;;;;;19.62;51.56;102123.06;5100057;27;46265;-56
2021/06/13 04:14:31;;;;;;;;;12.00;10.75;;;;;19.64;51.68;102137.22;5100330;27;45275;-57
2021/06/13 04:16:57;;;;;;;;;12.25;11.25;;;;;19.68;51.46;102138.00;5100489;27;45338;-56
2021/06/13 04:19:23;;;;;;;;;9.25;7.75;;;;;19.66;51.58;102138.06;5100261;27;45431;-56
2021/06/13 04:21:48;;;;;;;;;10.00;8.00;;;;;19.61;51.77;102140.00;5100017;27;46391;-56
2021/06/13 04:24:17;;;;;;;;;11.00;10.00;;;;;19.60;51.84;102147.09;5100554;27;45430;-56
2021/06/13 04:26:43;;;;;;;;;8.25;7.50;;;;;19.60;52.06;102143.56;5102507;27;46833;-57
2021/06/13 04:29:10;;;;;;;;;11.00;7.75;;;;;19.59;51.80;102148.00;5120644;27;45572;-56
2021/06/13 04:31:36;;;;;;;;;10.75;8.00;;;;;19.57;51.96;102151.66;5100919;27;45973;-57
2021/06/13 04:34:01;;;;;;;;;6.75;6.75;;;;;19.57;52.05;102146.31;5100139;27;45240;-56
2021/06/13 04:36:26;;;;;;;;;8.50;8.50;;;;;19.57;51.80;102144.53;5100246;27;45303;-56
2021/06/13 04:38:52;;;;;;;;;10.00;10.00;;;;;19.59;51.40;102149.81;5110796;27;45446;-57
2021/06/13 04:41:18;;;;;;;;;9.75;9.75;;;;;19.61;51.78;102150.66;5113713;27;46083;-57
2021/06/13 04:43:44;;;;;;;;;9.00;8.75;;;;;19.61;51.89;102151.53;5099849;27;45321;-56
2021/06/13 04:46:11;;;;;;;;;48.00;39.00;;;;;19.58;51.78;102154.25;5100052;27;45320;-57
2021/06/13 04:48:40;;;;;;;;;9.50;8.50;;;;;19.55;51.92;102148.19;5081834;27;45386;-57
2021/06/13 04:51:11;;;;;;;;;14.50;12.75;;;;;19.60;51.89;102154.25;5118686;27;45669;-56
2021/06/13 04:54:21;;;;;;;;;10.50;10.00;;;;;19.59;51.96;102158.69;5111856;27;45330;-56
2021/06/13 04:57:00;;;;;;;;;11.25;10.50;;;;;19.62;51.76;102157.72;5115117;27;45226;-56
2021/06/13 04:59:26;;;;;;;;;12.75;10.00;;;;;19.63;51.93;102165.69;5116614;27;45448;-56
2021/06/13 05:01:51;;;;;;;;;11.25;9.75;;;;;19.64;51.37;102163.88;5130976;27;46049;-56
2021/06/13 05:04:17;;;;;;;;;8.75;7.75;;;;;19.68;51.90;102170.88;5103566;27;45428;-56
2021/06/13 05:06:44;;;;;;;;;8.25;8.00;;;;;19.68;51.19;102168.19;5104533;27;45316;-56
2021/06/13 05:09:10;;;;;;;;;13.25;10.50;;;;;19.67;51.43;102171.78;5110563;27;45261;-56
2021/06/13 05:11:36;;;;;;;;;9.75;9.00;;;;;19.66;51.57;102159.38;5109296;27;45246;-56
2021/06/13 05:14:02;;;;;;;;;11.00;9.00;;;;;19.70;51.49;102165.47;5103204;27;45302;-56
2021/06/13 05:16:27;;;;;;;;;12.75;7.75;;;;;19.71;51.26;102165.44;5103416;27;45477;-56
2021/06/13 05:18:52;;;;;;;;;11.50;11.50;;;;;19.73;51.19;102173.41;5084741;27;45661;-56
2021/06/13 05:21:18;;;;;;;;;8.50;8.50;;;;;19.72;50.96;102172.53;5103033;27;45418;-57
2021/06/13 05:23:43;;;;;;;;;9.25;8.25;;;;;19.75;51.26;102169.75;5103249;27;46284;-56
2021/06/13 05:26:09;;;;;;;;;8.75;8.50;;;;;19.75;50.38;102175.09;5103133;27;45475;-56
2021/06/13 05:28:34;;;;;;;;;8.25;8.00;;;;;19.77;50.59;102178.59;5121042;27;45437;-57
2021/06/13 05:30:59;;;;;;;;;10.50;9.50;;;;;19.79;50.41;102184.75;5109276;27;46071;-55
2021/06/13 05:33:25;;;;;;;;;11.25;8.00;;;;;19.83;50.17;102182.03;5102812;27;45396;-56
2021/06/13 05:35:51;;;;;;;;;9.50;9.00;;;;;19.83;50.72;102187.38;5102928;27;45500;-56
2021/06/13 05:38:18;;;;;;;;;9.00;9.00;;;;;19.86;50.13;102187.25;5067653;27;45541;-55
2021/06/13 05:40:43;;;;;;;;;8.00;7.75;;;;;19.88;50.45;102185.44;5104975;27;45450;-55
2021/06/13 05:43:10;;;;;;;;;10.50;8.50;;;;;19.91;50.20;102186.22;5136975;27;45364;-56
2021/06/13 05:45:38;;;;;;;;;10.50;9.00;;;;;19.92;49.87;102195.97;5110851;27;45247;-56
2021/06/13 05:48:05;;;;;;;;;9.00;8.25;;;;;19.94;49.91;102196.78;5102419;27;45563;-56
2021/06/13 05:50:31;;;;;;;;;10.25;8.00;;;;;19.97;49.73;102186.03;5094387;27;45363;-56
2021/06/13 05:52:57;;;;;;;;;13.00;10.75;;;;;19.95;49.06;102192.34;5116436;27;45421;-56
2021/06/13 05:55:22;;;;;;;;;10.25;10.25;;;;;20.00;49.03;102197.50;5102718;27;45263;-57
2021/06/13 05:57:48;;;;;;;;;11.75;9.00;;;;;19.97;48.79;102188.69;5108579;27;45374;-58
2021/06/13 06:00:18;;;;;;;;;9.25;8.25;;;;;20.03;48.72;102198.28;5108586;27;45932;-57
2021/06/13 06:02:45;;;;;;;;;9.00;9.00;;;;;20.06;49.17;102195.53;5101521;27;45525;-57
2021/06/13 06:05:12;;;;;;;;;7.25;7.25;;;;;20.11;48.66;102201.63;5101619;27;45436;-57
2021/06/13 06:07:38;;;;;;;;;7.25;7.25;;;;;20.12;48.27;102200.69;5111225;27;45469;-57
2021/06/13 06:10:04;;;;;;;;;7.50;6.00;;;;;20.14;48.52;102206.84;5115284;27;45903;-58
2021/06/13 06:12:30;;;;;;;;;9.75;7.00;;;;;20.19;47.92;102200.47;5102163;27;45280;-58
2021/06/13 06:14:55;;;;;;;;;10.50;7.25;;;;;20.21;47.79;102214.66;5102011;27;45241;-57
2021/06/13 06:17:21;;;;;;;;;8.75;7.50;;;;;20.21;47.83;102204.84;5102106;27;45525;-57
2021/06/13 06:19:46;;;;;;;;;8.00;8.00;;;;;20.24;47.46;102212.75;5101648;27;46051;-57
2021/06/13 06:22:12;;;;;;;;;7.25;7.25;;;;;20.28;47.61;102210.88;5101989;27;45206;-57
2021/06/13 06:24:37;;;;;;;;;7.00;6.00;;;;;20.27;47.60;102201.97;5101820;27;45371;-58
2021/06/13 06:27:04;;;;;;;;;8.75;7.25;;;;;20.39;47.12;102208.72;5107074;27;45420;-57
2021/06/13 06:29:30;;;;;;;;;6.75;6.75;;;;;20.43;47.18;102213.03;5120200;27;45431;-56
2021/06/13 06:31:56;;;;;;;;;9.75;9.00;;;;;20.43;47.32;102207.69;5101736;27;45402;-55
2021/06/13 06:34:21;;;;;;;;;9.25;7.00;;;;;20.52;47.12;102221.69;5099062;27;46570;-56
2021/06/13 06:36:47;;;;;;;;;8.00;7.00;;;;;20.46;46.85;102215.63;5113361;27;45388;-55
2021/06/13 06:39:13;;;;;;;;;9.00;7.75;;;;;20.58;46.82;102221.50;5089489;27;48093;-54
2021/06/13 06:41:39;;;;;;;;;8.25;7.00;;;;;20.63;46.34;102222.22;5115070;27;45238;-54
2021/06/13 06:44:06;;;;;;;;;8.50;8.50;;;;;20.67;46.02;102221.16;5101354;27;45341;-54
2021/06/13 06:46:31;;;;;;;;;8.50;6.75;;;;;20.64;46.69;102218.63;5108837;27;45224;-52
2021/06/13 06:48:57;;;;;;;;;8.25;6.25;;;;;20.71;46.35;102224.66;5108090;27;45357;-51
2021/06/13 06:51:23;;;;;;;;;9.25;8.50;;;;;20.75;46.14;102227.19;5119420;27;45260;-54
2021/06/13 06:53:49;;;;;;;;;10.75;7.25;;;;;20.80;46.21;102231.47;5122025;27;45397;-52
2021/06/13 06:56:14;;;;;;;;;7.25;7.25;;;;;20.86;45.58;102228.59;5101741;27;45308;-53
2021/06/13 06:58:39;;;;;;;;;9.50;7.25;;;;;20.87;45.87;102225.03;5101066;27;45271;-55
2021/06/13 07:01:05;;;;;;;;;6.50;6.50;;;;;20.92;45.44;102223.91;5101760;27;45290;-54
2021/06/13 07:03:30;;;;;;;;;8.50;8.25;;;;;20.96;45.48;102224.69;5101400;27;45318;-51
2021/06/13 07:05:56;;;;;;;;;5.25;4.75;;;;;21.00;45.17;102220.13;5101457;27;45484;-55
2021/06/13 07:08:21;;;;;;;;;6.75;6.75;;;;;21.05;45.18;102223.50;5097506;27;48241;-48
2021/06/13 07:10:46;;;;;;;;;7.00;7.00;;;;;21.11;45.14;102236.66;5101416;27;45256;-49
2021/06/13 07:13:12;;;;;;;;;7.50;5.75;;;;;21.14;44.07;102223.16;5082278;27;45557;-57
2021/06/13 07:15:38;;;;;;;;;5.50;5.50;;;;;21.17;44.52;102223.06;5083147;27;45253;-54
2021/06/13 07:18:03;;;;;;;;;6.00;6.00;;;;;21.23;44.05;102228.19;5128464;27;45814;-54
2021/06/13 07:20:29;;;;;;;;;6.50;5.25;;;;;21.30;43.61;102230.66;5114865;27;45249;-50
2021/06/13 07:22:54;;;;;;;;;4.00;4.00;;;;;21.34;43.14;102225.13;5100987;27;45986;-61
2021/06/13 07:25:20;;;;;;;;;4.25;4.00;;;;;21.38;43.35;102229.44;5101372;27;45291;-61
2021/06/13 07:27:45;;;;;;;;;7.25;7.25;;;;;21.42;43.49;102228.41;5111722;27;46056;-60
2021/06/13 07:30:13;;;;;;;;;5.25;5.25;;;;;21.52;43.02;102228.06;5114472;27;45291;-59
2021/06/13 07:32:38;;;;;;;;;6.75;6.25;;;;;21.61;42.61;102238.47;5101028;27;45238;-60
2021/06/13 07:35:06;;;;;;;;;7.00;6.75;;;;;21.69;41.87;102244.38;5101207;27;45355;-58
2021/06/13 07:37:31;;;;;;;;;4.50;4.50;;;;;21.75;41.73;102241.47;5100749;27;46191;-59
2021/06/13 07:39:56;;;;;;;;;5.25;4.25;;;;;21.82;41.64;102238.56;5106503;27;45399;-60
2021/06/13 07:42:22;;;;;;;;;5.50;5.25;;;;;21.88;41.36;102238.34;5108806;27;45320;-60
2021/06/13 07:44:50;;;;;;;;;4.75;4.75;;;;;21.89;41.59;102237.41;5100595;27;45304;-59
2021/06/13 07:47:16;;;;;;;;;5.00;4.50;;;;;21.93;41.03;102231.00;5100842;27;47219;-61
2021/06/13 07:49:41;;;;;;;;;7.50;7.50;;;;;21.97;41.42;102234.44;5085465;27;45272;-63
2021/06/13 07:52:06;;;;;;;;;6.00;4.75;;;;;22.00;41.59;102239.66;5121329;27;45304;-61
2021/06/13 07:54:32;;;;;;;;;7.00;7.00;;;;;22.05;41.50;102219.81;5083204;27;45574;-63
2021/06/13 07:56:57;;;;;;;;;8.00;7.50;;;;;22.13;41.72;102224.00;5100620;27;45357;-58
2021/06/13 07:59:22;;;;;;;;;7.50;5.75;;;;;22.16;41.73;102224.78;5100519;27;45418;-59
2021/06/13 08:01:48;;;;;;;;;7.00;6.00;;;;;22.29;41.51;102229.59;5100764;27;45320;-57
2021/06/13 08:04:13;;;;;;;;;6.25;5.00;;;;;22.35;41.54;102235.59;5100413;27;45360;-57
2021/06/13 08:06:39;;;;;;;;;5.75;5.25;;;;;22.42;41.33;102238.94;5101018;27;46066;-57
2021/06/13 08:09:05;;;;;;;;;8.25;7.50;;;;;22.45;41.36;102219.19;5115119;27;45345;-55
2021/06/13 08:11:30;;;;;;;;;7.75;7.75;;;;;22.53;41.19;102228.66;5082480;27;45415;-57
2021/06/13 08:13:56;;;;;;;;;9.00;7.75;;;;;22.61;41.46;102227.47;5082005;27;45667;-57
2021/06/13 08:16:22;;;;;;;;;7.00;7.00;;;;;22.67;40.86;102225.41;5101148;27;45352;-57
2021/06/13 08:18:47;;;;;;;;;8.00;8.00;;;;;22.71;41.36;102224.31;5082601;27;45323;-57
2021/06/13 08:21:13;;;;;;;;;9.75;8.25;;;;;22.77;41.07;102219.66;5082251;27;45202;-56
2021/06/13 08:23:38;;;;;;;;;9.00;8.00;;;;;22.78;40.84;102229.44;5100200;27;45506;-58
2021/06/13 08:26:04;;;;;;;;;9.75;9.75;;;;;22.81;40.80;102232.00;5104024;27;46669;-57
2021/06/13 08:28:30;;;;;;;;;8.00;8.00;;;;;22.84;40.79;102222.03;5121065;27;45341;-58
2021/06/13 08:30:56;;;;;;;;;7.00;7.00;;;;;22.88;41.06;102222.75;5093031;27;45319;-60
2021/06/13 08:33:23;;;;;;;;;7.75;7.00;;;;;22.94;40.72;102227.81;5085618;27;45363;-57
2021/06/13 08:35:48;;;;;;;;;6.00;6.00;;;;;22.99;41.07;102227.63;5103778;27;46027;-55
2021/06/13 08:38:14;;;;;;;;;7.00;5.75;;;;;23.06;40.88;102226.44;5085395;27;45276;-61
2021/06/13 08:40:40;;;;;;;;;6.50;6.00;;;;;23.08;40.83;102211.19;5116190;27;45275;-62
2021/06/13 08:43:06;;;;;;;;;8.00;6.25;;;;;23.14;40.89;102229.63;5102258;27;45331;-65
2021/06/13 08:45:34;;;;;;;;;5.00;5.00;;;;;23.22;40.43;102232.03;5115826;27;46306;-61
2021/06/13 08:48:02;;;;;;;;;6.25;5.00;;;;;23.27;40.54;102219.31;5104733;27;45243;-60
2021/06/13 08:50:29;;;;;;;;;5.75;5.75;;;;;23.34;40.31;102207.34;5119323;27;45208;-59
2021/06/13 08:52:55;;;;;;;;;7.50;6.50;;;;;23.41;40.47;102212.44;5117948;27;45424;-56
2021/06/13 08:55:22;;;;;;;;;5.00;5.00;;;;;23.46;40.28;102213.09;5103465;27;45381;-59
2021/06/13 08:57:49;;;;;;;;;8.50;6.75;;;;;23.49;40.33;102219.19;5103297;27;45367;-59
2021/06/13 09:00:18;;;;;;;;;6.75;6.75;;;;;23.55;40.23;102215.38;5103601;27;45325;-65
2021/06/13 09:02:44;;;;;;;;;6.50;6.50;;;;;23.62;40.05;102211.47;5109538;27;45485;-63
2021/06/13 09:05:18;;;;;;;;;5.25;5.00;;;;;23.63;40.18;102210.50;5109953;27;45431;-71
2021/06/13 09:08:08;;;;;;;;;5.75;5.75;;;;;23.71;39.93;102210.16;5114697;27;45380;-61
2021/06/13 09:10:35;;;;;;;;;4.75;4.75;;;;;23.72;39.69;102203.84;5107151;27;45271;-61
2021/06/13 09:13:13;;;;;;;;;8.50;7.00;;;;;23.81;39.71;102205.22;5103027;27;45525;-60
2021/06/13 09:15:48;;;;;;;;;7.00;6.00;;;;;23.81;39.72;102215.94;5092222;27;45305;-60
2021/06/13 09:18:35;;;;;;;;;6.50;6.00;;;;;23.87;39.51;102196.88;5089638;27;45463;-64
2021/06/13 09:21:02;;;;;;;;;4.75;4.00;;;;;23.90;39.40;102195.84;5082440;27;45296;-58
2021/06/13 09:23:30;;;;;;;;;4.00;4.00;;;;;23.89;39.16;102195.00;5115736;27;45172;-57
2021/06/13 09:26:01;;;;;;;;;3.25;3.25;;;;;23.88;39.00;102190.56;5090605;27;46333;-57
2021/06/13 09:28:27;;;;;;;;;4.00;4.00;;;;;23.90;38.88;102194.06;5098139;27;45262;-58
2021/06/13 09:30:54;;;;;;;;;6.50;4.25;;;;;23.93;38.84;102193.94;5089379;27;45180;-58
2021/06/13 09:33:27;;;;;;;;;7.00;6.00;;;;;23.97;38.86;102200.03;5114671;27;45251;-57
2021/06/13 09:35:54;;;;;;;;;5.00;3.75;;;;;23.98;38.81;102199.09;5087840;27;45994;-57
2021/06/13 09:38:27;;;;;;;;;4.00;4.00;;;;;23.99;38.63;102201.69;5115051;27;45432;-59
2021/06/13 09:41:02;;;;;;;;;4.75;4.75;;;;;24.02;38.51;102206.06;5101764;27;45210;-58
2021/06/13 09:43:33;;;;;;;;;4.00;4.00;;;;;24.05;38.41;102200.53;5109533;27;45290;-58
2021/06/13 09:46:07;;;;;;;;;5.25;4.50;;;;;24.10;38.50;102197.63;5103790;27;47082;-58
2021/06/13 09:48:35;;;;;;;;;5.00;3.50;;;;;24.16;38.27;102200.00;5081385;27;45571;-59
2021/06/13 09:51:07;;;;;;;;;7.00;4.25;;;;;24.18;38.35;102196.31;5095600;27;45589;-58
2021/06/13 09:53:36;;;;;;;;;6.25;6.25;;;;;24.22;38.52;102204.22;5089648;27;45434;-58
2021/06/13 09:56:12;;;;;;;;;8.75;8.50;;;;;24.26;37.86;102203.13;5080751;27;45321;-59
2021/06/13 09:58:55;;;;;;;;;9.75;7.25;;;;;24.26;38.43;102192.38;5080540;27;45277;-59
2021/06/13 10:01:24;;;;;;;;;9.75;8.25;;;;;24.34;38.06;102191.06;5081382;28;45405;-64
2021/06/13 10:03:49;;;;;;;;;6.25;6.25;;;;;24.40;38.22;102192.56;5081935;27;45374;-62
2021/06/13 10:06:20;;;;;;;;;5.25;5.25;;;;;24.46;38.54;102194.06;5079591;27;47040;-57
2021/06/13 10:08:48;;;;;;;;;8.00;6.75;;;;;24.55;38.05;102192.75;5077554;27;45397;-58
2021/06/13 10:11:15;;;;;;;;;6.50;5.75;;;;;24.62;38.14;102194.19;5080882;27;45383;-61
2021/06/13 10:13:44;;;;;;;;;6.00;5.50;;;;;24.68;38.06;102191.22;5078666;27;45193;-61
2021/06/13 10:16:20;;;;;;;;;5.25;5.25;;;;;24.76;38.03;102193.50;5080539;27;46237;-60
2021/06/13 10:19:01;;;;;;;;;8.00;7.00;;;;;24.84;38.11;102191.25;5073908;27;514022;-59
2021/06/13 10:21:35;;;;;;;;;4.75;4.75;;;;;24.93;37.91;102177.38;5102125;27;45216;-60
2021/06/13 10:24:03;;;;;;;;;4.00;4.00;;;;;25.02;38.07;102178.69;5101855;27;45375;-60
2021/06/13 10:26:28;;;;;;;;;8.25;5.75;;;;;25.10;37.67;102179.16;5083923;27;46771;-58
2021/06/13 10:28:55;;;;;;;;;6.50;6.25;;;;;25.20;37.90;102176.84;5122454;27;45332;-60
2021/06/13 10:31:20;;;;;;;;;11.50;11.50;;;;;25.28;38.08;102177.31;5105457;27;45323;-54
2021/06/13 10:33:46;;;;;;;;;7.00;7.00;;;;;25.39;37.58;102159.75;5101986;27;45489;-58
2021/06/13 10:36:12;;;;;;;;;5.75;5.25;;;;;25.48;37.50;102156.53;5101764;27;46295;-58
2021/06/13 10:38:38;;;;;;;;;11.25;9.25;;;;;25.61;37.46;102170.19;5101823;27;45193;-58
2021/06/13 10:41:04;;;;;;;;;8.25;7.00;;;;;25.81;37.66;102171.78;5115723;27;45205;-58
2021/06/13 10:43:31;;;;;;;;;4.25;4.25;;;;;26.10;38.21;102170.13;5101759;27;45495;-61
2021/06/13 10:46:25;;;;;;;;;5.00;4.50;;;;;26.64;38.16;102167.94;5101704;27;46334;-60
2021/06/13 10:48:52;;;;;;;;;4.00;4.00;;;;;27.31;38.64;102167.44;5101451;27;45405;-60
2021/06/13 10:51:33;;;;;;;;;5.00;4.00;;;;;28.09;38.67;102160.72;5094713;27;45336;-59
2021/06/13 10:54:18;;;;;;;;;8.00;6.00;;;;;28.98;39.13;102154.66;5101893;27;45547;-62
2021/06/13 10:56:44;;;;;;;;;4.75;4.75;;;;;29.82;38.66;102155.00;5083019;27;48082;-61
2021/06/13 10:59:17;;;;;;;;;5.25;5.25;;;;;30.73;38.76;102154.53;5101241;27;45224;-59
2021/06/13 11:02:11;;;;;;;;;5.75;5.75;;;;;31.77;38.31;102152.59;5101892;27;45388;-59
2021/06/13 11:04:53;;;;;;;;;3.75;3.75;;;;;32.79;38.72;102152.19;5092489;27;45384;-60
2021/06/13 11:07:28;;;;;;;;;4.00;4.00;;;;;33.83;37.85;102154.78;5109295;27;45492;-52
2021/06/13 11:10:02;;;;;;;;;3.25;3.25;;;;;34.79;38.83;102151.31;5108628;27;45338;-57
2021/06/13 11:12:57;;;;;;;;;5.00;5.00;;;;;35.75;38.42;102147.47;5109105;27;45399;-54
2021/06/13 11:15:22;;;;;;;;;6.25;4.75;;;;;36.65;38.74;102151.19;5103279;27;45475;-60
2021/06/13 11:17:57;;;;;;;;;5.75;3.25;;;;;37.39;38.32;102152.47;5085782;27;47174;-57
2021/06/13 11:20:29;;;;;;;;;4.00;4.00;;;;;38.07;37.37;102157.97;5102249;27;45330;-59
2021/06/13 11:22:57;;;;;;;;;6.00;5.25;;;;;38.59;37.23;102154.00;5101492;27;45291;-67
2021/06/13 11:25:26;;;;;;;;;4.75;4.75;;;;;38.94;35.08;102154.66;5101245;27;45323;-57
2021/06/13 11:28:11;;;;;;;;;5.00;5.00;;;;;39.03;34.61;102149.13;5112801;27;47000;-64